sensor_id;sensor_type;location;lat;lon;timestamp;P1;durP1;ratioP1;P2;durP2;ratioP2
22282;SDS011;11310;51.528;21.204;2023-05-23T00:00:48;22.75;;;8.85;;
22282;SDS011;11310;51.528;21.204;2023-05-23T00:03:17;103.45;;;14.18;;
22282;SDS011;11310;51.528;21.204;2023-05-23T00:05:48;49.72;;;8.80;;
22282;SDS011;11310;51.528;21.204;2023-05-23T00:08:17;93.38;;;13.25;;
22282;SDS011;11310;51.528;21.204;2023-05-23T00:10:46;51.72;;;9.10;;
22282;SDS011;11310;51.528;21.204;2023-05-23T00:13:16;42.22;;;7.82;;
22282;SDS011;11310;51.528;21.204;2023-05-23T00:15:45;44.55;;;7.80;;
22282;SDS011;11310;51.528;21.204;2023-05-23T00:18:14;69.93;;;11.50;;
22282;SDS011;11310;51.528;21.204;2023-05-23T00:20:43;65.03;;;10.07;;
22282;SDS011;11310;51.528;21.204;2023-05-23T00:23:12;123.57;;;17.42;;
22282;SDS011;11310;51.528;21.204;2023-05-23T00:25:45;77.60;;;12.20;;
22282;SDS011;11310;51.528;21.204;2023-05-23T00:28:21;55.13;;;10.27;;
22282;SDS011;11310;51.528;21.204;2023-05-23T00:30:50;82.72;;;12.95;;
22282;SDS011;11310;51.528;21.204;2023-05-23T00:33:18;71.18;;;11.68;;
22282;SDS011;11310;51.528;21.204;2023-05-23T00:35:49;88.28;;;14.25;;
22282;SDS011;11310;51.528;21.204;2023-05-23T00:38:18;43.95;;;8.75;;
22282;SDS011;11310;51.528;21.204;2023-05-23T00:40:47;98.05;;;15.38;;
22282;SDS011;11310;51.528;21.204;2023-05-23T00:43:16;50.60;;;10.10;;
22282;SDS011;11310;51.528;21.204;2023-05-23T00:45:48;79.65;;;12.90;;
22282;SDS011;11310;51.528;21.204;2023-05-23T00:48:17;57.80;;;10.00;;
22282;SDS011;11310;51.528;21.204;2023-05-23T00:50:46;153.43;;;23.25;;
22282;SDS011;11310;51.528;21.204;2023-05-23T00:53:15;77.00;;;12.65;;
22282;SDS011;11310;51.528;21.204;2023-05-23T00:55:44;62.35;;;11.38;;
22282;SDS011;11310;51.528;21.204;2023-05-23T00:58:13;112.18;;;16.42;;
22282;SDS011;11310;51.528;21.204;2023-05-23T01:00:43;51.83;;;9.27;;
22282;SDS011;11310;51.528;21.204;2023-05-23T01:03:13;95.22;;;14.70;;
22282;SDS011;11310;51.528;21.204;2023-05-23T01:05:44;77.38;;;12.15;;
22282;SDS011;11310;51.528;21.204;2023-05-23T01:08:13;72.43;;;12.15;;
22282;SDS011;11310;51.528;21.204;2023-05-23T01:10:42;64.70;;;10.55;;
22282;SDS011;11310;51.528;21.204;2023-05-23T01:13:14;66.35;;;11.00;;
22282;SDS011;11310;51.528;21.204;2023-05-23T01:15:50;35.88;;;7.93;;
22282;SDS011;11310;51.528;21.204;2023-05-23T01:18:31;100.97;;;13.27;;
22282;SDS011;11310;51.528;21.204;2023-05-23T01:21:05;89.35;;;11.80;;
22282;SDS011;11310;51.528;21.204;2023-05-23T01:23:52;121.25;;;15.60;;
22282;SDS011;11310;51.528;21.204;2023-05-23T01:26:32;92.93;;;12.98;;
22282;SDS011;11310;51.528;21.204;2023-05-23T01:29:18;51.92;;;8.57;;
22282;SDS011;11310;51.528;21.204;2023-05-23T01:31:52;106.93;;;13.95;;
22282;SDS011;11310;51.528;21.204;2023-05-23T01:34:22;53.75;;;8.68;;
22282;SDS011;11310;51.528;21.204;2023-05-23T01:36:52;82.60;;;11.80;;
22282;SDS011;11310;51.528;21.204;2023-05-23T01:39:22;84.20;;;11.18;;
22282;SDS011;11310;51.528;21.204;2023-05-23T01:41:51;60.08;;;8.88;;
22282;SDS011;11310;51.528;21.204;2023-05-23T01:44:22;53.63;;;8.75;;
22282;SDS011;11310;51.528;21.204;2023-05-23T01:46:50;55.38;;;8.68;;
22282;SDS011;11310;51.528;21.204;2023-05-23T01:49:20;88.35;;;12.32;;
22282;SDS011;11310;51.528;21.204;2023-05-23T01:51:52;60.30;;;9.15;;
22282;SDS011;11310;51.528;21.204;2023-05-23T01:54:21;94.97;;;12.73;;
22282;SDS011;11310;51.528;21.204;2023-05-23T01:56:50;65.07;;;9.50;;
22282;SDS011;11310;51.528;21.204;2023-05-23T01:59:19;109.00;;;14.35;;
22282;SDS011;11310;51.528;21.204;2023-05-23T02:01:49;78.43;;;11.02;;
22282;SDS011;11310;51.528;21.204;2023-05-23T02:04:18;72.85;;;10.52;;
22282;SDS011;11310;51.528;21.204;2023-05-23T02:06:49;114.45;;;15.23;;
22282;SDS011;11310;51.528;21.204;2023-05-23T02:09:17;61.92;;;10.00;;
22282;SDS011;11310;51.528;21.204;2023-05-23T02:11:47;86.75;;;12.63;;
22282;SDS011;11310;51.528;21.204;2023-05-23T02:14:16;117.88;;;15.77;;
22282;SDS011;11310;51.528;21.204;2023-05-23T02:16:46;73.78;;;11.90;;
22282;SDS011;11310;51.528;21.204;2023-05-23T02:19:16;69.40;;;11.00;;
22282;SDS011;11310;51.528;21.204;2023-05-23T02:21:45;92.22;;;13.60;;
22282;SDS011;11310;51.528;21.204;2023-05-23T02:24:14;105.68;;;15.20;;
22282;SDS011;11310;51.528;21.204;2023-05-23T02:26:44;77.15;;;11.35;;
22282;SDS011;11310;51.528;21.204;2023-05-23T02:29:13;112.63;;;14.63;;
22282;SDS011;11310;51.528;21.204;2023-05-23T02:31:43;71.63;;;11.70;;
22282;SDS011;11310;51.528;21.204;2023-05-23T02:34:12;92.70;;;14.45;;
22282;SDS011;11310;51.528;21.204;2023-05-23T02:36:42;32.58;;;8.43;;
22282;SDS011;11310;51.528;21.204;2023-05-23T02:39:10;109.55;;;22.42;;
22282;SDS011;11310;51.528;21.204;2023-05-23T02:41:39;41.95;;;9.23;;
22282;SDS011;11310;51.528;21.204;2023-05-23T02:44:08;192.02;;;28.00;;
22282;SDS011;11310;51.528;21.204;2023-05-23T02:46:36;43.67;;;9.43;;
22282;SDS011;11310;51.528;21.204;2023-05-23T02:49:05;88.53;;;13.80;;
22282;SDS011;11310;51.528;21.204;2023-05-23T02:51:33;69.85;;;11.40;;
22282;SDS011;11310;51.528;21.204;2023-05-23T02:54:03;214.30;;;26.08;;
22282;SDS011;11310;51.528;21.204;2023-05-23T02:56:35;75.65;;;11.23;;
22282;SDS011;11310;51.528;21.204;2023-05-23T02:59:03;189.52;;;23.88;;
22282;SDS011;11310;51.528;21.204;2023-05-23T03:01:32;119.97;;;16.23;;
22282;SDS011;11310;51.528;21.204;2023-05-23T03:04:01;42.88;;;11.23;;
22282;SDS011;11310;51.528;21.204;2023-05-23T03:06:30;67.47;;;13.27;;
22282;SDS011;11310;51.528;21.204;2023-05-23T03:09:00;119.95;;;17.48;;
22282;SDS011;11310;51.528;21.204;2023-05-23T03:11:30;74.55;;;12.35;;
22282;SDS011;11310;51.528;21.204;2023-05-23T03:13:58;40.58;;;11.02;;
22282;SDS011;11310;51.528;21.204;2023-05-23T03:16:27;55.58;;;9.57;;
22282;SDS011;11310;51.528;21.204;2023-05-23T03:18:55;116.00;;;16.15;;
22282;SDS011;11310;51.528;21.204;2023-05-23T03:21:24;72.80;;;12.10;;
22282;SDS011;11310;51.528;21.204;2023-05-23T03:23:53;101.18;;;15.80;;
22282;SDS011;11310;51.528;21.204;2023-05-23T03:26:22;51.08;;;9.05;;
22282;SDS011;11310;51.528;21.204;2023-05-23T03:28:52;53.80;;;13.82;;
22282;SDS011;11310;51.528;21.204;2023-05-23T03:31:21;29.02;;;8.07;;
22282;SDS011;11310;51.528;21.204;2023-05-23T03:33:49;34.33;;;9.35;;
22282;SDS011;11310;51.528;21.204;2023-05-23T03:36:19;138.18;;;19.58;;
22282;SDS011;11310;51.528;21.204;2023-05-23T03:41:50;120.47;;;17.98;;
22282;SDS011;11310;51.528;21.204;2023-05-23T03:44:20;87.88;;;13.68;;
22282;SDS011;11310;51.528;21.204;2023-05-23T03:46:50;37.70;;;7.22;;
22282;SDS011;11310;51.528;21.204;2023-05-23T03:49:19;69.55;;;11.90;;
22282;SDS011;11310;51.528;21.204;2023-05-23T03:51:48;52.80;;;9.45;;
22282;SDS011;11310;51.528;21.204;2023-05-23T03:54:17;60.33;;;11.55;;
22282;SDS011;11310;51.528;21.204;2023-05-23T03:56:46;52.33;;;12.38;;
22282;SDS011;11310;51.528;21.204;2023-05-23T03:59:14;99.68;;;18.40;;
22282;SDS011;11310;51.528;21.204;2023-05-23T04:01:47;56.03;;;13.73;;
22282;SDS011;11310;51.528;21.204;2023-05-23T04:04:16;46.63;;;12.93;;
22282;SDS011;11310;51.528;21.204;2023-05-23T04:09:16;53.10;;;11.95;;
22282;SDS011;11310;51.528;21.204;2023-05-23T04:11:47;67.72;;;14.32;;
22282;SDS011;11310;51.528;21.204;2023-05-23T04:14:17;46.38;;;10.60;;
22282;SDS011;11310;51.528;21.204;2023-05-23T04:16:51;109.20;;;19.17;;
22282;SDS011;11310;51.528;21.204;2023-05-23T04:19:22;47.42;;;10.02;;
22282;SDS011;11310;51.528;21.204;2023-05-23T04:21:52;53.72;;;10.57;;
22282;SDS011;11310;51.528;21.204;2023-05-23T04:24:21;60.17;;;11.68;;
22282;SDS011;11310;51.528;21.204;2023-05-23T04:26:50;34.97;;;7.72;;
22282;SDS011;11310;51.528;21.204;2023-05-23T04:29:22;48.42;;;9.60;;
22282;SDS011;11310;51.528;21.204;2023-05-23T04:31:54;51.50;;;10.70;;
22282;SDS011;11310;51.528;21.204;2023-05-23T04:34:25;54.00;;;10.98;;
22282;SDS011;11310;51.528;21.204;2023-05-23T04:36:53;55.13;;;11.00;;
22282;SDS011;11310;51.528;21.204;2023-05-23T04:39:23;74.93;;;14.15;;
22282;SDS011;11310;51.528;21.204;2023-05-23T04:42:16;59.38;;;11.52;;
22282;SDS011;11310;51.528;21.204;2023-05-23T04:45:13;88.80;;;16.55;;
22282;SDS011;11310;51.528;21.204;2023-05-23T04:47:55;32.50;;;7.68;;
22282;SDS011;11310;51.528;21.204;2023-05-23T04:50:40;68.85;;;13.40;;
22282;SDS011;11310;51.528;21.204;2023-05-23T04:53:08;79.70;;;14.95;;
22282;SDS011;11310;51.528;21.204;2023-05-23T04:55:38;60.53;;;12.05;;
22282;SDS011;11310;51.528;21.204;2023-05-23T04:58:12;90.40;;;17.15;;
22282;SDS011;11310;51.528;21.204;2023-05-23T05:00:41;55.85;;;11.88;;
22282;SDS011;11310;51.528;21.204;2023-05-23T05:03:12;69.55;;;13.60;;
22282;SDS011;11310;51.528;21.204;2023-05-23T05:05:44;49.63;;;10.77;;
22282;SDS011;11310;51.528;21.204;2023-05-23T05:08:14;36.33;;;8.55;;
22282;SDS011;11310;51.528;21.204;2023-05-23T05:10:46;44.03;;;10.70;;
22282;SDS011;11310;51.528;21.204;2023-05-23T05:13:17;75.47;;;15.75;;
22282;SDS011;11310;51.528;21.204;2023-05-23T05:15:52;45.33;;;10.27;;
22282;SDS011;11310;51.528;21.204;2023-05-23T05:18:23;14.02;;;7.05;;
22282;SDS011;11310;51.528;21.204;2023-05-23T05:20:57;19.80;;;8.80;;
22282;SDS011;11310;51.528;21.204;2023-05-23T05:23:29;20.13;;;9.18;;
22282;SDS011;11310;51.528;21.204;2023-05-23T05:25:59;37.17;;;15.85;;
22282;SDS011;11310;51.528;21.204;2023-05-23T05:28:29;23.65;;;9.60;;
22282;SDS011;11310;51.528;21.204;2023-05-23T05:30:58;28.92;;;11.82;;
22282;SDS011;11310;51.528;21.204;2023-05-23T05:33:35;23.52;;;9.57;;
22282;SDS011;11310;51.528;21.204;2023-05-23T05:36:10;34.15;;;11.73;;
22282;SDS011;11310;51.528;21.204;2023-05-23T05:38:40;20.83;;;7.45;;
22282;SDS011;11310;51.528;21.204;2023-05-23T05:41:09;53.80;;;10.70;;
22282;SDS011;11310;51.528;21.204;2023-05-23T05:43:44;30.35;;;7.20;;
22282;SDS011;11310;51.528;21.204;2023-05-23T05:46:13;7.80;;;4.10;;
22282;SDS011;11310;51.528;21.204;2023-05-23T05:48:44;6.68;;;3.20;;
22282;SDS011;11310;51.528;21.204;2023-05-23T05:51:16;7.18;;;3.33;;
22282;SDS011;11310;51.528;21.204;2023-05-23T05:53:45;6.18;;;2.97;;
22282;SDS011;11310;51.528;21.204;2023-05-23T05:56:16;8.37;;;3.20;;
22282;SDS011;11310;51.528;21.204;2023-05-23T05:58:44;9.68;;;4.43;;
22282;SDS011;11310;51.528;21.204;2023-05-23T06:01:15;7.20;;;3.50;;
22282;SDS011;11310;51.528;21.204;2023-05-23T06:03:45;5.72;;;2.97;;
22282;SDS011;11310;51.528;21.204;2023-05-23T06:06:15;5.97;;;3.03;;
22282;SDS011;11310;51.528;21.204;2023-05-23T06:08:44;10.05;;;3.13;;
22282;SDS011;11310;51.528;21.204;2023-05-23T06:11:15;6.43;;;3.38;;
22282;SDS011;11310;51.528;21.204;2023-05-23T06:13:44;6.30;;;2.40;;
22282;SDS011;11310;51.528;21.204;2023-05-23T06:16:14;5.00;;;2.78;;
22282;SDS011;11310;51.528;21.204;2023-05-23T06:18:45;7.63;;;3.20;;
22282;SDS011;11310;51.528;21.204;2023-05-23T06:21:14;5.82;;;2.95;;
22282;SDS011;11310;51.528;21.204;2023-05-23T06:23:48;5.20;;;2.60;;
22282;SDS011;11310;51.528;21.204;2023-05-23T06:26:17;6.70;;;2.70;;
22282;SDS011;11310;51.528;21.204;2023-05-23T06:28:45;5.82;;;3.20;;
22282;SDS011;11310;51.528;21.204;2023-05-23T06:31:14;5.65;;;2.45;;
22282;SDS011;11310;51.528;21.204;2023-05-23T06:33:43;6.72;;;2.75;;
22282;SDS011;11310;51.528;21.204;2023-05-23T06:36:14;5.85;;;2.95;;
22282;SDS011;11310;51.528;21.204;2023-05-23T06:38:42;7.00;;;2.65;;
22282;SDS011;11310;51.528;21.204;2023-05-23T06:41:11;5.40;;;2.45;;
22282;SDS011;11310;51.528;21.204;2023-05-23T06:43:40;6.28;;;2.38;;
22282;SDS011;11310;51.528;21.204;2023-05-23T06:46:14;7.13;;;2.55;;
22282;SDS011;11310;51.528;21.204;2023-05-23T06:48:43;5.68;;;2.20;;
22282;SDS011;11310;51.528;21.204;2023-05-23T06:51:14;4.80;;;2.38;;
22282;SDS011;11310;51.528;21.204;2023-05-23T06:53:43;4.10;;;2.10;;
22282;SDS011;11310;51.528;21.204;2023-05-23T06:56:13;8.30;;;3.63;;
22282;SDS011;11310;51.528;21.204;2023-05-23T06:58:55;5.18;;;2.50;;
22282;SDS011;11310;51.528;21.204;2023-05-23T07:01:25;6.55;;;3.25;;
22282;SDS011;11310;51.528;21.204;2023-05-23T07:03:54;6.68;;;2.55;;
22282;SDS011;11310;51.528;21.204;2023-05-23T07:06:25;4.18;;;1.80;;
22282;SDS011;11310;51.528;21.204;2023-05-23T07:08:56;4.25;;;2.45;;
22282;SDS011;11310;51.528;21.204;2023-05-23T07:11:26;4.90;;;2.13;;
22282;SDS011;11310;51.528;21.204;2023-05-23T07:13:58;3.72;;;1.98;;
22282;SDS011;11310;51.528;21.204;2023-05-23T07:16:47;8.95;;;2.03;;
22282;SDS011;11310;51.528;21.204;2023-05-23T07:19:16;5.40;;;2.10;;
22282;SDS011;11310;51.528;21.204;2023-05-23T07:21:50;4.68;;;2.25;;
22282;SDS011;11310;51.528;21.204;2023-05-23T07:24:19;2.58;;;1.80;;
22282;SDS011;11310;51.528;21.204;2023-05-23T07:26:53;4.80;;;2.55;;
22282;SDS011;11310;51.528;21.204;2023-05-23T07:29:24;6.68;;;2.03;;
22282;SDS011;11310;51.528;21.204;2023-05-23T07:31:54;3.85;;;1.95;;
22282;SDS011;11310;51.528;21.204;2023-05-23T07:34:27;6.05;;;1.88;;
22282;SDS011;11310;51.528;21.204;2023-05-23T07:37:00;4.28;;;1.90;;
22282;SDS011;11310;51.528;21.204;2023-05-23T07:39:37;4.25;;;1.75;;
22282;SDS011;11310;51.528;21.204;2023-05-23T07:42:06;5.15;;;1.73;;
22282;SDS011;11310;51.528;21.204;2023-05-23T07:44:36;3.35;;;1.77;;
22282;SDS011;11310;51.528;21.204;2023-05-23T07:47:05;3.58;;;1.63;;
22282;SDS011;11310;51.528;21.204;2023-05-23T07:49:34;9.02;;;2.40;;
22282;SDS011;11310;51.528;21.204;2023-05-23T07:52:05;4.72;;;2.03;;
22282;SDS011;11310;51.528;21.204;2023-05-23T07:54:35;6.57;;;2.08;;
22282;SDS011;11310;51.528;21.204;2023-05-23T07:57:04;4.03;;;1.75;;
22282;SDS011;11310;51.528;21.204;2023-05-23T07:59:35;4.15;;;2.00;;
22282;SDS011;11310;51.528;21.204;2023-05-23T08:02:04;3.30;;;1.80;;
22282;SDS011;11310;51.528;21.204;2023-05-23T08:04:34;6.32;;;3.15;;
22282;SDS011;11310;51.528;21.204;2023-05-23T08:07:05;3.85;;;2.03;;
22282;SDS011;11310;51.528;21.204;2023-05-23T08:09:54;3.47;;;2.13;;
22282;SDS011;11310;51.528;21.204;2023-05-23T08:12:23;4.90;;;2.47;;
22282;SDS011;11310;51.528;21.204;2023-05-23T08:15:00;10.68;;;5.15;;
22282;SDS011;11310;51.528;21.204;2023-05-23T08:20:11;8.00;;;4.60;;
22282;SDS011;11310;51.528;21.204;2023-05-23T08:22:44;11.35;;;5.90;;
22282;SDS011;11310;51.528;21.204;2023-05-23T08:25:14;17.85;;;7.93;;
22282;SDS011;11310;51.528;21.204;2023-05-23T08:27:43;16.25;;;5.15;;
22282;SDS011;11310;51.528;21.204;2023-05-23T08:30:37;10.48;;;5.10;;
22282;SDS011;11310;51.528;21.204;2023-05-23T08:33:07;5.32;;;3.58;;
22282;SDS011;11310;51.528;21.204;2023-05-23T08:35:38;7.23;;;4.73;;
22282;SDS011;11310;51.528;21.204;2023-05-23T08:43:25;8.52;;;3.20;;
22282;SDS011;11310;51.528;21.204;2023-05-23T08:45:56;6.23;;;2.73;;
22282;SDS011;11310;51.528;21.204;2023-05-23T08:48:28;17.27;;;8.27;;
22282;SDS011;11310;51.528;21.204;2023-05-23T08:50:58;4.82;;;2.10;;
22282;SDS011;11310;51.528;21.204;2023-05-23T08:56:05;4.70;;;1.90;;
22282;SDS011;11310;51.528;21.204;2023-05-23T08:58:41;5.18;;;2.60;;
22282;SDS011;11310;51.528;21.204;2023-05-23T09:01:11;3.30;;;1.80;;
22282;SDS011;11310;51.528;21.204;2023-05-23T09:03:43;4.60;;;1.77;;
22282;SDS011;11310;51.528;21.204;2023-05-23T09:06:33;3.45;;;1.90;;
22282;SDS011;11310;51.528;21.204;2023-05-23T09:09:08;5.20;;;1.70;;
22282;SDS011;11310;51.528;21.204;2023-05-23T09:11:38;4.03;;;2.00;;
22282;SDS011;11310;51.528;21.204;2023-05-23T09:14:09;5.05;;;2.28;;
22282;SDS011;11310;51.528;21.204;2023-05-23T09:16:44;3.05;;;2.10;;
22282;SDS011;11310;51.528;21.204;2023-05-23T09:19:17;5.40;;;2.35;;
22282;SDS011;11310;51.528;21.204;2023-05-23T09:21:55;6.82;;;2.10;;
22282;SDS011;11310;51.528;21.204;2023-05-23T09:24:34;5.95;;;2.10;;
22282;SDS011;11310;51.528;21.204;2023-05-23T09:27:06;5.28;;;2.55;;
22282;SDS011;11310;51.528;21.204;2023-05-23T09:29:37;5.77;;;2.43;;
22282;SDS011;11310;51.528;21.204;2023-05-23T09:32:10;5.68;;;2.13;;
22282;SDS011;11310;51.528;21.204;2023-05-23T09:34:40;5.22;;;2.22;;
22282;SDS011;11310;51.528;21.204;2023-05-23T09:37:14;6.05;;;2.20;;
22282;SDS011;11310;51.528;21.204;2023-05-23T09:39:47;8.50;;;2.60;;
22282;SDS011;11310;51.528;21.204;2023-05-23T09:42:19;6.22;;;2.50;;
22282;SDS011;11310;51.528;21.204;2023-05-23T09:44:49;17.23;;;8.98;;
22282;SDS011;11310;51.528;21.204;2023-05-23T09:47:18;12.23;;;6.28;;
22282;SDS011;11310;51.528;21.204;2023-05-23T09:49:47;7.53;;;3.40;;
22282;SDS011;11310;51.528;21.204;2023-05-23T09:52:19;5.65;;;3.17;;
22282;SDS011;11310;51.528;21.204;2023-05-23T09:54:49;8.20;;;4.03;;
22282;SDS011;11310;51.528;21.204;2023-05-23T09:57:19;4.72;;;2.58;;
22282;SDS011;11310;51.528;21.204;2023-05-23T09:59:51;7.53;;;3.65;;
22282;SDS011;11310;51.528;21.204;2023-05-23T10:02:29;6.75;;;3.63;;
22282;SDS011;11310;51.528;21.204;2023-05-23T10:05:26;7.93;;;3.20;;
22282;SDS011;11310;51.528;21.204;2023-05-23T10:08:06;9.70;;;5.78;;
22282;SDS011;11310;51.528;21.204;2023-05-23T10:13:58;9.43;;;3.58;;
22282;SDS011;11310;51.528;21.204;2023-05-23T10:16:32;8.55;;;4.20;;
22282;SDS011;11310;51.528;21.204;2023-05-23T10:19:16;7.28;;;4.15;;
22282;SDS011;11310;51.528;21.204;2023-05-23T10:21:56;6.80;;;3.58;;
22282;SDS011;11310;51.528;21.204;2023-05-23T10:24:30;8.25;;;4.00;;
22282;SDS011;11310;51.528;21.204;2023-05-23T10:27:00;6.25;;;3.45;;
22282;SDS011;11310;51.528;21.204;2023-05-23T10:29:32;7.53;;;2.80;;
22282;SDS011;11310;51.528;21.204;2023-05-23T10:32:09;6.90;;;4.00;;
22282;SDS011;11310;51.528;21.204;2023-05-23T10:34:45;9.68;;;3.63;;
22282;SDS011;11310;51.528;21.204;2023-05-23T10:37:30;9.77;;;5.93;;
22282;SDS011;11310;51.528;21.204;2023-05-23T10:40:10;7.65;;;4.07;;
22282;SDS011;11310;51.528;21.204;2023-05-23T10:43:01;5.85;;;3.58;;
22282;SDS011;11310;51.528;21.204;2023-05-23T10:45:44;4.47;;;2.30;;
22282;SDS011;11310;51.528;21.204;2023-05-23T10:48:19;3.92;;;2.30;;
22282;SDS011;11310;51.528;21.204;2023-05-23T10:51:02;5.70;;;2.10;;
22282;SDS011;11310;51.528;21.204;2023-05-23T10:53:37;2.95;;;1.90;;
22282;SDS011;11310;51.528;21.204;2023-05-23T10:56:09;6.10;;;2.25;;
22282;SDS011;11310;51.528;21.204;2023-05-23T11:01:14;4.00;;;2.05;;
22282;SDS011;11310;51.528;21.204;2023-05-23T11:03:53;5.43;;;1.90;;
22282;SDS011;11310;51.528;21.204;2023-05-23T11:06:30;7.18;;;2.20;;
22282;SDS011;11310;51.528;21.204;2023-05-23T11:09:06;5.70;;;1.80;;
22282;SDS011;11310;51.528;21.204;2023-05-23T11:11:51;4.05;;;2.00;;
22282;SDS011;11310;51.528;21.204;2023-05-23T11:14:51;5.75;;;2.05;;
22282;SDS011;11310;51.528;21.204;2023-05-23T11:17:32;7.70;;;2.17;;
22282;SDS011;11310;51.528;21.204;2023-05-23T11:20:06;3.97;;;2.07;;
22282;SDS011;11310;51.528;21.204;2023-05-23T11:22:52;5.60;;;1.98;;
22282;SDS011;11310;51.528;21.204;2023-05-23T11:28:14;3.95;;;1.95;;
22282;SDS011;11310;51.528;21.204;2023-05-23T11:31:03;5.70;;;2.40;;
22282;SDS011;11310;51.528;21.204;2023-05-23T11:33:42;5.68;;;2.15;;
22282;SDS011;11310;51.528;21.204;2023-05-23T11:36:11;4.25;;;2.20;;
22282;SDS011;11310;51.528;21.204;2023-05-23T11:38:42;8.32;;;2.30;;
22282;SDS011;11310;51.528;21.204;2023-05-23T11:41:18;4.80;;;2.42;;
22282;SDS011;11310;51.528;21.204;2023-05-23T11:43:56;3.45;;;2.13;;
22282;SDS011;11310;51.528;21.204;2023-05-23T11:46:28;6.45;;;2.47;;
22282;SDS011;11310;51.528;21.204;2023-05-23T11:49:05;5.78;;;2.30;;
22282;SDS011;11310;51.528;21.204;2023-05-23T11:51:45;5.68;;;2.45;;
22282;SDS011;11310;51.528;21.204;2023-05-23T11:54:30;3.80;;;2.17;;
22282;SDS011;11310;51.528;21.204;2023-05-23T11:57:02;4.60;;;2.35;;
22282;SDS011;11310;51.528;21.204;2023-05-23T11:59:43;5.38;;;2.38;;
22282;SDS011;11310;51.528;21.204;2023-05-23T12:02:16;2.85;;;1.90;;
22282;SDS011;11310;51.528;21.204;2023-05-23T12:04:49;3.90;;;2.30;;
22282;SDS011;11310;51.528;21.204;2023-05-23T12:07:19;5.63;;;2.45;;
22282;SDS011;11310;51.528;21.204;2023-05-23T12:09:54;7.28;;;2.40;;
22282;SDS011;11310;51.528;21.204;2023-05-23T12:12:27;5.45;;;2.45;;
22282;SDS011;11310;51.528;21.204;2023-05-23T12:14:58;4.28;;;2.13;;
22282;SDS011;11310;51.528;21.204;2023-05-23T12:17:32;5.82;;;2.67;;
22282;SDS011;11310;51.528;21.204;2023-05-23T12:20:04;4.93;;;2.30;;
22282;SDS011;11310;51.528;21.204;2023-05-23T12:22:46;8.95;;;3.03;;
22282;SDS011;11310;51.528;21.204;2023-05-23T12:25:19;3.53;;;2.20;;
22282;SDS011;11310;51.528;21.204;2023-05-23T12:27:49;4.45;;;2.30;;
22282;SDS011;11310;51.528;21.204;2023-05-23T12:30:22;4.75;;;2.50;;
22282;SDS011;11310;51.528;21.204;2023-05-23T12:32:54;7.40;;;2.15;;
22282;SDS011;11310;51.528;21.204;2023-05-23T12:35:39;4.63;;;2.15;;
22282;SDS011;11310;51.528;21.204;2023-05-23T12:38:13;3.92;;;2.42;;
22282;SDS011;11310;51.528;21.204;2023-05-23T12:40:45;5.78;;;2.20;;
22282;SDS011;11310;51.528;21.204;2023-05-23T12:43:14;5.57;;;2.70;;
22282;SDS011;11310;51.528;21.204;2023-05-23T12:45:50;6.88;;;2.60;;
22282;SDS011;11310;51.528;21.204;2023-05-23T12:48:20;3.88;;;2.20;;
22282;SDS011;11310;51.528;21.204;2023-05-23T12:50:51;4.50;;;2.28;;
22282;SDS011;11310;51.528;21.204;2023-05-23T12:53:22;5.55;;;2.50;;
22282;SDS011;11310;51.528;21.204;2023-05-23T12:55:52;6.82;;;2.60;;
22282;SDS011;11310;51.528;21.204;2023-05-23T12:58:23;7.10;;;2.53;;
22282;SDS011;11310;51.528;21.204;2023-05-23T13:00:57;7.25;;;2.90;;
22282;SDS011;11310;51.528;21.204;2023-05-23T13:03:27;7.40;;;2.40;;
22282;SDS011;11310;51.528;21.204;2023-05-23T13:06:02;4.60;;;2.42;;
22282;SDS011;11310;51.528;21.204;2023-05-23T13:08:40;5.63;;;2.67;;
22282;SDS011;11310;51.528;21.204;2023-05-23T13:11:16;5.32;;;2.50;;
22282;SDS011;11310;51.528;21.204;2023-05-23T13:13:52;5.82;;;2.50;;
22282;SDS011;11310;51.528;21.204;2023-05-23T13:16:23;6.53;;;2.60;;
22282;SDS011;11310;51.528;21.204;2023-05-23T13:18:56;5.05;;;2.50;;
22282;SDS011;11310;51.528;21.204;2023-05-23T13:21:32;6.72;;;2.67;;
22282;SDS011;11310;51.528;21.204;2023-05-23T13:24:22;5.88;;;2.22;;
22282;SDS011;11310;51.528;21.204;2023-05-23T13:27:01;7.47;;;3.13;;
22282;SDS011;11310;51.528;21.204;2023-05-23T13:29:45;7.68;;;2.90;;
22282;SDS011;11310;51.528;21.204;2023-05-23T13:32:29;4.88;;;2.65;;
22282;SDS011;11310;51.528;21.204;2023-05-23T13:34:59;6.47;;;3.10;;
22282;SDS011;11310;51.528;21.204;2023-05-23T13:37:31;8.93;;;2.90;;
22282;SDS011;11310;51.528;21.204;2023-05-23T13:40:20;4.55;;;2.42;;
22282;SDS011;11310;51.528;21.204;2023-05-23T13:45:45;4.93;;;2.65;;
22282;SDS011;11310;51.528;21.204;2023-05-23T13:48:25;8.15;;;2.80;;
22282;SDS011;11310;51.528;21.204;2023-05-23T13:51:05;4.30;;;2.50;;
22282;SDS011;11310;51.528;21.204;2023-05-23T13:53:59;5.20;;;2.58;;
22282;SDS011;11310;51.528;21.204;2023-05-23T13:56:59;9.65;;;2.90;;
22282;SDS011;11310;51.528;21.204;2023-05-23T13:59:40;3.95;;;2.50;;
22282;SDS011;11310;51.528;21.204;2023-05-23T14:02:09;4.35;;;1.83;;
22282;SDS011;11310;51.528;21.204;2023-05-23T14:04:43;4.85;;;2.45;;
22282;SDS011;11310;51.528;21.204;2023-05-23T14:07:16;4.38;;;2.40;;
22282;SDS011;11310;51.528;21.204;2023-05-23T14:09:57;7.35;;;2.40;;
22282;SDS011;11310;51.528;21.204;2023-05-23T14:13:07;4.22;;;2.08;;
22282;SDS011;11310;51.528;21.204;2023-05-23T14:15:44;5.22;;;2.20;;
22282;SDS011;11310;51.528;21.204;2023-05-23T14:18:14;4.65;;;2.20;;
22282;SDS011;11310;51.528;21.204;2023-05-23T14:20:46;5.60;;;2.47;;
22282;SDS011;11310;51.528;21.204;2023-05-23T14:23:22;4.97;;;2.65;;
22282;SDS011;11310;51.528;21.204;2023-05-23T14:26:00;3.83;;;2.05;;
22282;SDS011;11310;51.528;21.204;2023-05-23T14:28:38;4.53;;;2.13;;
22282;SDS011;11310;51.528;21.204;2023-05-23T14:31:20;5.18;;;2.35;;
22282;SDS011;11310;51.528;21.204;2023-05-23T14:33:57;5.07;;;2.13;;
22282;SDS011;11310;51.528;21.204;2023-05-23T14:36:36;4.10;;;2.05;;
22282;SDS011;11310;51.528;21.204;2023-05-23T14:39:18;8.93;;;2.92;;
22282;SDS011;11310;51.528;21.204;2023-05-23T14:45:07;6.32;;;2.28;;
22282;SDS011;11310;51.528;21.204;2023-05-23T14:47:49;4.38;;;2.08;;
22282;SDS011;11310;51.528;21.204;2023-05-23T14:50:31;4.18;;;1.90;;
22282;SDS011;11310;51.528;21.204;2023-05-23T14:53:33;16.10;;;2.88;;
22282;SDS011;11310;51.528;21.204;2023-05-23T14:56:14;17.73;;;2.38;;
22282;SDS011;11310;51.528;21.204;2023-05-23T14:58:50;4.68;;;2.13;;
22282;SDS011;11310;51.528;21.204;2023-05-23T15:01:33;3.70;;;1.98;;
22282;SDS011;11310;51.528;21.204;2023-05-23T15:04:32;7.38;;;3.03;;
22282;SDS011;11310;51.528;21.204;2023-05-23T15:07:30;3.80;;;1.65;;
22282;SDS011;11310;51.528;21.204;2023-05-23T15:10:19;3.85;;;1.95;;
22282;SDS011;11310;51.528;21.204;2023-05-23T15:12:52;7.40;;;2.22;;
22282;SDS011;11310;51.528;21.204;2023-05-23T15:15:38;6.45;;;2.05;;
22282;SDS011;11310;51.528;21.204;2023-05-23T15:18:13;3.03;;;1.88;;
22282;SDS011;11310;51.528;21.204;2023-05-23T15:21:19;5.50;;;2.22;;
22282;SDS011;11310;51.528;21.204;2023-05-23T15:24:02;5.35;;;2.53;;
22282;SDS011;11310;51.528;21.204;2023-05-23T15:26:45;3.70;;;2.00;;
22282;SDS011;11310;51.528;21.204;2023-05-23T15:29:45;3.75;;;1.77;;
22282;SDS011;11310;51.528;21.204;2023-05-23T15:32:29;5.32;;;1.98;;